sensor_id;sensor_type;location;lat;lon;timestamp;pressure;altitude;pressure_sealevel;temperature
60966;BMP180;46834;51.100;6.886;2022-08-03T00:00:06;101192.00;;;27.90
60966;BMP180;46834;51.100;6.886;2022-08-03T00:02:32;101180.00;;;27.80
60966;BMP180;46834;51.100;6.886;2022-08-03T00:04:58;101178.00;;;27.80
60966;BMP180;46834;51.100;6.886;2022-08-03T00:07:23;101180.00;;;27.80
60966;BMP180;46834;51.100;6.886;2022-08-03T00:09:49;101188.00;;;27.80
60966;BMP180;46834;51.100;6.886;2022-08-03T00:12:15;101183.00;;;27.70
60966;BMP180;46834;51.100;6.886;2022-08-03T00:14:41;101186.00;;;27.70
60966;BMP180;46834;51.100;6.886;2022-08-03T00:17:07;101180.00;;;27.70
60966;BMP180;46834;51.100;6.886;2022-08-03T00:19:32;101174.00;;;27.70
60966;BMP180;46834;51.100;6.886;2022-08-03T00:21:58;101188.00;;;27.60
60966;BMP180;46834;51.100;6.886;2022-08-03T00:24:24;101180.00;;;27.60
60966;BMP180;46834;51.100;6.886;2022-08-03T00:26:50;101188.00;;;27.60
60966;BMP180;46834;51.100;6.886;2022-08-03T00:29:16;101180.00;;;27.60
60966;BMP180;46834;51.100;6.886;2022-08-03T00:31:42;101179.00;;;27.60
60966;BMP180;46834;51.100;6.886;2022-08-03T00:34:07;101176.00;;;27.50
60966;BMP180;46834;51.100;6.886;2022-08-03T00:36:33;101176.00;;;27.50
60966;BMP180;46834;51.100;6.886;2022-08-03T00:38:59;101170.00;;;27.50
60966;BMP180;46834;51.100;6.886;2022-08-03T00:41:24;101175.00;;;27.50
60966;BMP180;46834;51.100;6.886;2022-08-03T00:43:50;101166.00;;;27.50
60966;BMP180;46834;51.100;6.886;2022-08-03T00:46:16;101180.00;;;27.40
60966;BMP180;46834;51.100;6.886;2022-08-03T00:48:42;101173.00;;;27.40
60966;BMP180;46834;51.100;6.886;2022-08-03T00:51:07;101170.00;;;27.40
60966;BMP180;46834;51.100;6.886;2022-08-03T00:53:35;101167.00;;;27.40
60966;BMP180;46834;51.100;6.886;2022-08-03T00:56:02;101164.00;;;27.30
60966;BMP180;46834;51.100;6.886;2022-08-03T00:58:28;101165.00;;;27.30
60966;BMP180;46834;51.100;6.886;2022-08-03T01:00:53;101169.00;;;27.30
60966;BMP180;46834;51.100;6.886;2022-08-03T01:03:19;101164.00;;;27.30
60966;BMP180;46834;51.100;6.886;2022-08-03T01:11:32;101162.00;;;27.10
60966;BMP180;46834;51.100;6.886;2022-08-03T01:14:12;101162.00;;;27.10
60966;BMP180;46834;51.100;6.886;2022-08-03T01:17:11;101154.00;;;27.00
60966;BMP180;46834;51.100;6.886;2022-08-03T01:20:16;101149.00;;;27.00
60966;BMP180;46834;51.100;6.886;2022-08-03T01:26:01;101139.00;;;26.90
60966;BMP180;46834;51.100;6.886;2022-08-03T01:28:57;101158.00;;;26.90
60966;BMP180;46834;51.100;6.886;2022-08-03T01:31:36;101153.00;;;26.90
60966;BMP180;46834;51.100;6.886;2022-08-03T01:34:09;101159.00;;;26.90
60966;BMP180;46834;51.100;6.886;2022-08-03T01:36:42;101153.00;;;26.90
60966;BMP180;46834;51.100;6.886;2022-08-03T01:39:10;101160.00;;;26.90
60966;BMP180;46834;51.100;6.886;2022-08-03T01:41:50;101160.00;;;26.80
60966;BMP180;46834;51.100;6.886;2022-08-03T01:44:19;101157.00;;;26.80
60966;BMP180;46834;51.100;6.886;2022-08-03T01:46:47;101159.00;;;26.80
60966;BMP180;46834;51.100;6.886;2022-08-03T01:49:16;101162.00;;;26.80
60966;BMP180;46834;51.100;6.886;2022-08-03T01:51:46;101152.00;;;26.80
60966;BMP180;46834;51.100;6.886;2022-08-03T01:54:13;101151.00;;;26.70
60966;BMP180;46834;51.100;6.886;2022-08-03T01:56:41;101150.00;;;26.70
60966;BMP180;46834;51.100;6.886;2022-08-03T01:59:10;101150.00;;;26.70
60966;BMP180;46834;51.100;6.886;2022-08-03T02:01:37;101145.00;;;26.60
60966;BMP180;46834;51.100;6.886;2022-08-03T02:04:05;101140.00;;;26.60
60966;BMP180;46834;51.100;6.886;2022-08-03T02:06:33;101134.00;;;26.60
60966;BMP180;46834;51.100;6.886;2022-08-03T02:09:02;101142.00;;;26.60
60966;BMP180;46834;51.100;6.886;2022-08-03T02:11:31;101144.00;;;26.50
60966;BMP180;46834;51.100;6.886;2022-08-03T02:14:02;101153.00;;;26.50
60966;BMP180;46834;51.100;6.886;2022-08-03T02:16:31;101143.00;;;26.50
60966;BMP180;46834;51.100;6.886;2022-08-03T02:19:01;101133.00;;;26.50
60966;BMP180;46834;51.100;6.886;2022-08-03T02:21:31;101141.00;;;26.40
60966;BMP180;46834;51.100;6.886;2022-08-03T02:23:58;101137.00;;;26.50
60966;BMP180;46834;51.100;6.886;2022-08-03T02:26:28;101122.00;;;26.40
60966;BMP180;46834;51.100;6.886;2022-08-03T02:28:59;101128.00;;;26.40
60966;BMP180;46834;51.100;6.886;2022-08-03T02:31:30;101138.00;;;26.40
60966;BMP180;46834;51.100;6.886;2022-08-03T02:34:02;101139.00;;;26.30
60966;BMP180;46834;51.100;6.886;2022-08-03T02:36:36;101138.00;;;26.30
60966;BMP180;46834;51.100;6.886;2022-08-03T02:39:05;101139.00;;;26.30
60966;BMP180;46834;51.100;6.886;2022-08-03T02:41:40;101123.00;;;26.30
60966;BMP180;46834;51.100;6.886;2022-08-03T02:44:08;101134.00;;;26.30
60966;BMP180;46834;51.100;6.886;2022-08-03T02:46:40;101128.00;;;26.30
60966;BMP180;46834;51.100;6.886;2022-08-03T02:49:09;101131.00;;;26.30
60966;BMP180;46834;51.100;6.886;2022-08-03T02:51:38;101123.00;;;26.20
60966;BMP180;46834;51.100;6.886;2022-08-03T02:54:06;101137.00;;;26.20
60966;BMP180;46834;51.100;6.886;2022-08-03T02:56:35;101135.00;;;26.20
60966;BMP180;46834;51.100;6.886;2022-08-03T02:59:03;101130.00;;;26.20
60966;BMP180;46834;51.100;6.886;2022-08-03T03:01:31;101128.00;;;26.20
60966;BMP180;46834;51.100;6.886;2022-08-03T03:03:59;101136.00;;;26.20
60966;BMP180;46834;51.100;6.886;2022-08-03T03:06:25;101135.00;;;26.20
60966;BMP180;46834;51.100;6.886;2022-08-03T03:08:52;101123.00;;;26.20
60966;BMP180;46834;51.100;6.886;2022-08-03T03:11:21;101131.00;;;26.10
60966;BMP180;46834;51.100;6.886;2022-08-03T03:13:48;101121.00;;;26.10
60966;BMP180;46834;51.100;6.886;2022-08-03T03:16:16;101127.00;;;26.10
60966;BMP180;46834;51.100;6.886;2022-08-03T03:18:45;101127.00;;;26.00
60966;BMP180;46834;51.100;6.886;2022-08-03T03:21:14;101124.00;;;26.00
60966;BMP180;46834;51.100;6.886;2022-08-03T03:23:41;101135.00;;;26.00
60966;BMP180;46834;51.100;6.886;2022-08-03T03:26:08;101133.00;;;26.00
60966;BMP180;46834;51.100;6.886;2022-08-03T03:28:35;101135.00;;;26.00
60966;BMP180;46834;51.100;6.886;2022-08-03T03:31:05;101142.00;;;25.90
60966;BMP180;46834;51.100;6.886;2022-08-03T03:33:35;101129.00;;;25.90
60966;BMP180;46834;51.100;6.886;2022-08-03T03:36:04;101128.00;;;25.90
60966;BMP180;46834;51.100;6.886;2022-08-03T03:38:32;101133.00;;;25.90
60966;BMP180;46834;51.100;6.886;2022-08-03T03:40:59;101131.00;;;25.90
60966;BMP180;46834;51.100;6.886;2022-08-03T03:43:25;101136.00;;;25.90
60966;BMP180;46834;51.100;6.886;2022-08-03T03:45:51;101135.00;;;25.80
60966;BMP180;46834;51.100;6.886;2022-08-03T03:48:19;101134.00;;;25.80
60966;BMP180;46834;51.100;6.886;2022-08-03T03:50:45;101139.00;;;25.80
60966;BMP180;46834;51.100;6.886;2022-08-03T03:53:12;101137.00;;;25.80
60966;BMP180;46834;51.100;6.886;2022-08-03T03:55:39;101143.00;;;25.80
60966;BMP180;46834;51.100;6.886;2022-08-03T03:58:05;101147.00;;;25.80
60966;BMP180;46834;51.100;6.886;2022-08-03T04:00:32;101128.00;;;25.80
60966;BMP180;46834;51.100;6.886;2022-08-03T04:02:58;101141.00;;;25.80
60966;BMP180;46834;51.100;6.886;2022-08-03T04:05:24;101140.00;;;25.80
60966;BMP180;46834;51.100;6.886;2022-08-03T04:08:15;101142.00;;;25.70
60966;BMP180;46834;51.100;6.886;2022-08-03T04:11:25;101139.00;;;25.60
60966;BMP180;46834;51.100;6.886;2022-08-03T04:13:56;101133.00;;;25.70
60966;BMP180;46834;51.100;6.886;2022-08-03T04:16:34;101129.00;;;25.60
60966;BMP180;46834;51.100;6.886;2022-08-03T04:19:08;101137.00;;;25.60
60966;BMP180;46834;51.100;6.886;2022-08-03T04:21:39;101146.00;;;25.70
60966;BMP180;46834;51.100;6.886;2022-08-03T04:24:08;101130.00;;;25.70
60966;BMP180;46834;51.100;6.886;2022-08-03T04:26:39;101139.00;;;25.70
60966;BMP180;46834;51.100;6.886;2022-08-03T04:29:06;101140.00;;;25.70
60966;BMP180;46834;51.100;6.886;2022-08-03T04:31:35;101143.00;;;25.60
60966;BMP180;46834;51.100;6.886;2022-08-03T04:34:03;101133.00;;;25.70
60966;BMP180;46834;51.100;6.886;2022-08-03T04:36:35;101150.00;;;25.60
60966;BMP180;46834;51.100;6.886;2022-08-03T04:39:15;101144.00;;;25.60
60966;BMP180;46834;51.100;6.886;2022-08-03T04:41:44;101150.00;;;25.60
60966;BMP180;46834;51.100;6.886;2022-08-03T04:44:13;101142.00;;;25.60
60966;BMP180;46834;51.100;6.886;2022-08-03T04:46:40;101154.00;;;25.60
60966;BMP180;46834;51.100;6.886;2022-08-03T04:49:07;101155.00;;;25.70
60966;BMP180;46834;51.100;6.886;2022-08-03T04:51:34;101148.00;;;25.70
60966;BMP180;46834;51.100;6.886;2022-08-03T04:54:03;101158.00;;;25.60
60966;BMP180;46834;51.100;6.886;2022-08-03T04:56:29;101164.00;;;25.70
60966;BMP180;46834;51.100;6.886;2022-08-03T04:58:55;101156.00;;;25.70
60966;BMP180;46834;51.100;6.886;2022-08-03T05:01:20;101154.00;;;25.60
60966;BMP180;46834;51.100;6.886;2022-08-03T05:03:47;101155.00;;;25.70
60966;BMP180;46834;51.100;6.886;2022-08-03T05:06:13;101164.00;;;25.70
60966;BMP180;46834;51.100;6.886;2022-08-03T05:08:39;101165.00;;;25.70
60966;BMP180;46834;51.100;6.886;2022-08-03T05:11:04;101160.00;;;25.70
60966;BMP180;46834;51.100;6.886;2022-08-03T05:13:30;101162.00;;;25.70
60966;BMP180;46834;51.100;6.886;2022-08-03T05:15:56;101165.00;;;25.70
60966;BMP180;46834;51.100;6.886;2022-08-03T05:18:22;101167.00;;;25.70
60966;BMP180;46834;51.100;6.886;2022-08-03T05:20:48;101165.00;;;25.70
60966;BMP180;46834;51.100;6.886;2022-08-03T05:23:13;101163.00;;;25.70
60966;BMP180;46834;51.100;6.886;2022-08-03T05:25:39;101168.00;;;25.70
60966;BMP180;46834;51.100;6.886;2022-08-03T05:28:05;101165.00;;;25.70
60966;BMP180;46834;51.100;6.886;2022-08-03T05:30:31;101174.00;;;25.70
60966;BMP180;46834;51.100;6.886;2022-08-03T05:32:56;101172.00;;;25.70
60966;BMP180;46834;51.100;6.886;2022-08-03T05:35:22;101176.00;;;25.70
60966;BMP180;46834;51.100;6.886;2022-08-03T05:37:50;101165.00;;;25.80
60966;BMP180;46834;51.100;6.886;2022-08-03T05:40:16;101169.00;;;25.70
60966;BMP180;46834;51.100;6.886;2022-08-03T05:42:41;101171.00;;;25.80
60966;BMP180;46834;51.100;6.886;2022-08-03T05:45:08;101164.00;;;25.80
60966;BMP180;46834;51.100;6.886;2022-08-03T05:47:43;101164.00;;;25.70
60966;BMP180;46834;51.100;6.886;2022-08-03T05:50:11;101163.00;;;25.80
60966;BMP180;46834;51.100;6.886;2022-08-03T05:52:39;101160.00;;;25.80
60966;BMP180;46834;51.100;6.886;2022-08-03T05:55:10;101161.00;;;25.80
60966;BMP180;46834;51.100;6.886;2022-08-03T05:57:37;101161.00;;;25.80
60966;BMP180;46834;51.100;6.886;2022-08-03T06:00:09;101165.00;;;25.80
60966;BMP180;46834;51.100;6.886;2022-08-03T06:02:35;101166.00;;;25.90
60966;BMP180;46834;51.100;6.886;2022-08-03T06:05:01;101161.00;;;25.90
60966;BMP180;46834;51.100;6.886;2022-08-03T06:07:27;101168.00;;;25.90
60966;BMP180;46834;51.100;6.886;2022-08-03T06:09:53;101167.00;;;26.00
60966;BMP180;46834;51.100;6.886;2022-08-03T06:12:19;101170.00;;;26.00
60966;BMP180;46834;51.100;6.886;2022-08-03T06:14:45;101165.00;;;26.00
60966;BMP180;46834;51.100;6.886;2022-08-03T06:17:11;101165.00;;;26.10
60966;BMP180;46834;51.100;6.886;2022-08-03T06:19:37;101172.00;;;26.10
60966;BMP180;46834;51.100;6.886;2022-08-03T06:22:03;101165.00;;;26.10
60966;BMP180;46834;51.100;6.886;2022-08-03T06:24:29;101170.00;;;26.20
60966;BMP180;46834;51.100;6.886;2022-08-03T06:26:55;101169.00;;;26.20
60966;BMP180;46834;51.100;6.886;2022-08-03T06:29:21;101163.00;;;26.20
60966;BMP180;46834;51.100;6.886;2022-08-03T06:31:46;101170.00;;;26.20
60966;BMP180;46834;51.100;6.886;2022-08-03T06:34:12;101171.00;;;26.30
60966;BMP180;46834;51.100;6.886;2022-08-03T06:36:38;101164.00;;;26.40
60966;BMP180;46834;51.100;6.886;2022-08-03T06:39:04;101176.00;;;26.50
60966;BMP180;46834;51.100;6.886;2022-08-03T06:41:29;101179.00;;;26.70
60966;BMP180;46834;51.100;6.886;2022-08-03T06:43:55;101183.00;;;27.00
60966;BMP180;46834;51.100;6.886;2022-08-03T06:46:21;101190.00;;;27.40
60966;BMP180;46834;51.100;6.886;2022-08-03T06:48:47;101183.00;;;27.90
60966;BMP180;46834;51.100;6.886;2022-08-03T06:51:13;101186.00;;;28.40
60966;BMP180;46834;51.100;6.886;2022-08-03T06:53:39;101199.00;;;28.90
60966;BMP180;46834;51.100;6.886;2022-08-03T06:56:06;101199.00;;;29.50
60966;BMP180;46834;51.100;6.886;2022-08-03T06:58:33;101199.00;;;30.10
60966;BMP180;46834;51.100;6.886;2022-08-03T07:00:59;101205.00;;;30.70
60966;BMP180;46834;51.100;6.886;2022-08-03T07:03:25;101210.00;;;31.20
60966;BMP180;46834;51.100;6.886;2022-08-03T07:05:51;101216.00;;;31.80
60966;BMP180;46834;51.100;6.886;2022-08-03T07:08:17;101207.00;;;32.40
60966;BMP180;46834;51.100;6.886;2022-08-03T07:10:44;101224.00;;;33.00
60966;BMP180;46834;51.100;6.886;2022-08-03T07:13:10;101216.00;;;33.60
60966;BMP180;46834;51.100;6.886;2022-08-03T07:15:37;101220.00;;;34.20
60966;BMP180;46834;51.100;6.886;2022-08-03T07:18:03;101225.00;;;34.70
60966;BMP180;46834;51.100;6.886;2022-08-03T07:20:29;101225.00;;;35.20
60966;BMP180;46834;51.100;6.886;2022-08-03T07:22:54;101234.00;;;35.80
60966;BMP180;46834;51.100;6.886;2022-08-03T07:25:20;101228.00;;;36.30
60966;BMP180;46834;51.100;6.886;2022-08-03T07:27:47;101241.00;;;36.80
60966;BMP180;46834;51.100;6.886;2022-08-03T07:30:15;101240.00;;;37.30
60966;BMP180;46834;51.100;6.886;2022-08-03T07:32:43;101232.00;;;37.70
60966;BMP180;46834;51.100;6.886;2022-08-03T07:35:10;101228.00;;;38.10
60966;BMP180;46834;51.100;6.886;2022-08-03T07:37:36;101233.00;;;38.40
60966;BMP180;46834;51.100;6.886;2022-08-03T07:40:04;101222.00;;;38.80
60966;BMP180;46834;51.100;6.886;2022-08-03T07:42:30;101228.00;;;39.10
60966;BMP180;46834;51.100;6.886;2022-08-03T07:44:57;101231.00;;;39.20
60966;BMP180;46834;51.100;6.886;2022-08-03T07:47:26;101225.00;;;39.30
60966;BMP180;46834;51.100;6.886;2022-08-03T07:49:53;101228.00;;;39.40
60966;BMP180;46834;51.100;6.886;2022-08-03T07:52:19;101223.00;;;39.30
60966;BMP180;46834;51.100;6.886;2022-08-03T07:55:06;101232.00;;;39.10
60966;BMP180;46834;51.100;6.886;2022-08-03T07:57:33;101233.00;;;38.80
60966;BMP180;46834;51.100;6.886;2022-08-03T07:59:59;101230.00;;;38.50
60966;BMP180;46834;51.100;6.886;2022-08-03T08:02:25;101231.00;;;38.30
60966;BMP180;46834;51.100;6.886;2022-08-03T08:04:50;101226.00;;;38.00
60966;BMP180;46834;51.100;6.886;2022-08-03T08:07:16;101224.00;;;37.70
60966;BMP180;46834;51.100;6.886;2022-08-03T08:09:42;101224.00;;;37.30
60966;BMP180;46834;51.100;6.886;2022-08-03T08:12:08;101229.00;;;37.10
60966;BMP180;46834;51.100;6.886;2022-08-03T08:14:35;101229.00;;;36.80
60966;BMP180;46834;51.100;6.886;2022-08-03T08:17:01;101226.00;;;36.50
60966;BMP180;46834;51.100;6.886;2022-08-03T08:19:27;101231.00;;;36.20
60966;BMP180;46834;51.100;6.886;2022-08-03T08:21:52;101217.00;;;36.00
60966;BMP180;46834;51.100;6.886;2022-08-03T08:24:18;101221.00;;;35.70
60966;BMP180;46834;51.100;6.886;2022-08-03T08:26:44;101217.00;;;35.50
60966;BMP180;46834;51.100;6.886;2022-08-03T08:29:09;101215.00;;;35.30
60966;BMP180;46834;51.100;6.886;2022-08-03T08:31:35;101223.00;;;35.10
60966;BMP180;46834;51.100;6.886;2022-08-03T08:34:01;101221.00;;;34.90
60966;BMP180;46834;51.100;6.886;2022-08-03T08:36:32;101214.00;;;34.80
60966;BMP180;46834;51.100;6.886;2022-08-03T08:38:58;101212.00;;;34.60
60966;BMP180;46834;51.100;6.886;2022-08-03T08:41:24;101213.00;;;34.40
60966;BMP180;46834;51.100;6.886;2022-08-03T08:43:49;101212.00;;;34.30
60966;BMP180;46834;51.100;6.886;2022-08-03T08:46:17;101201.00;;;34.20
60966;BMP180;46834;51.100;6.886;2022-08-03T08:48:51;101204.00;;;34.00
60966;BMP180;46834;51.100;6.886;2022-08-03T08:51:20;101213.00;;;33.90
60966;BMP180;46834;51.100;6.886;2022-08-03T08:53:52;101202.00;;;33.80
60966;BMP180;46834;51.100;6.886;2022-08-03T08:56:22;101214.00;;;33.70
60966;BMP180;46834;51.100;6.886;2022-08-03T08:58:58;101210.00;;;33.60
60966;BMP180;46834;51.100;6.886;2022-08-03T09:01:25;101214.00;;;33.50
60966;BMP180;46834;51.100;6.886;2022-08-03T09:03:52;101207.00;;;33.50
60966;BMP180;46834;51.100;6.886;2022-08-03T09:06:20;101211.00;;;33.40
60966;BMP180;46834;51.100;6.886;2022-08-03T09:08:46;101201.00;;;33.30
60966;BMP180;46834;51.100;6.886;2022-08-03T09:11:11;101204.00;;;33.30
60966;BMP180;46834;51.100;6.886;2022-08-03T09:13:38;101206.00;;;33.20
60966;BMP180;46834;51.100;6.886;2022-08-03T09:16:20;101210.00;;;33.10
60966;BMP180;46834;51.100;6.886;2022-08-03T09:18:52;101209.00;;;33.10
60966;BMP180;46834;51.100;6.886;2022-08-03T09:21:23;101204.00;;;33.10
60966;BMP180;46834;51.100;6.886;2022-08-03T09:23:53;101203.00;;;33.00
60966;BMP180;46834;51.100;6.886;2022-08-03T09:26:24;101205.00;;;33.00
60966;BMP180;46834;51.100;6.886;2022-08-03T09:28:55;101201.00;;;32.90
60966;BMP180;46834;51.100;6.886;2022-08-03T09:31:36;101208.00;;;32.90
60966;BMP180;46834;51.100;6.886;2022-08-03T09:34:09;101205.00;;;32.80
60966;BMP180;46834;51.100;6.886;2022-08-03T09:36:40;101201.00;;;32.90
60966;BMP180;46834;51.100;6.886;2022-08-03T09:39:18;101189.00;;;32.80
60966;BMP180;46834;51.100;6.886;2022-08-03T09:41:48;101204.00;;;32.80
60966;BMP180;46834;51.100;6.886;2022-08-03T09:44:43;101195.00;;;32.80
60966;BMP180;46834;51.100;6.886;2022-08-03T09:47:13;101196.00;;;32.80
60966;BMP180;46834;51.100;6.886;2022-08-03T09:49:41;101187.00;;;32.80
60966;BMP180;46834;51.100;6.886;2022-08-03T09:52:18;101201.00;;;32.70
60966;BMP180;46834;51.100;6.886;2022-08-03T09:54:52;101195.00;;;32.70
60966;BMP180;46834;51.100;6.886;2022-08-03T09:57:23;101198.00;;;32.70
60966;BMP180;46834;51.100;6.886;2022-08-03T09:59:51;101197.00;;;32.70
60966;BMP180;46834;51.100;6.886;2022-08-03T10:02:26;101194.00;;;32.70
60966;BMP180;46834;51.100;6.886;2022-08-03T10:04:52;101186.00;;;32.70
60966;BMP180;46834;51.100;6.886;2022-08-03T10:07:23;101184.00;;;32.70
60966;BMP180;46834;51.100;6.886;2022-08-03T10:10:00;101193.00;;;32.70
60966;BMP180;46834;51.100;6.886;2022-08-03T10:12:27;101178.00;;;32.70
60966;BMP180;46834;51.100;6.886;2022-08-03T10:14:54;101186.00;;;32.70
60966;BMP180;46834;51.100;6.886;2022-08-03T10:17:21;101178.00;;;32.70
60966;BMP180;46834;51.100;6.886;2022-08-03T10:19:48;101180.00;;;32.70
60966;BMP180;46834;51.100;6.886;2022-08-03T10:22:21;101181.00;;;32.70
60966;BMP180;46834;51.100;6.886;2022-08-03T10:25:15;101177.00;;;32.60
60966;BMP180;46834;51.100;6.886;2022-08-03T10:27:45;101171.00;;;32.70
60966;BMP180;46834;51.100;6.886;2022-08-03T10:30:12;101173.00;;;32.70
60966;BMP180;46834;51.100;6.886;2022-08-03T10:32:54;101175.00;;;32.70
60966;BMP180;46834;51.100;6.886;2022-08-03T10:35:24;101164.00;;;32.80
60966;BMP180;46834;51.100;6.886;2022-08-03T10:38:02;101164.00;;;32.70
60966;BMP180;46834;51.100;6.886;2022-08-03T10:40:32;101166.00;;;32.80
60966;BMP180;46834;51.100;6.886;2022-08-03T10:43:21;101160.00;;;32.70
60966;BMP180;46834;51.100;6.886;2022-08-03T10:45:48;101161.00;;;32.80
60966;BMP180;46834;51.100;6.886;2022-08-03T10:48:18;101161.00;;;32.80
60966;BMP180;46834;51.100;6.886;2022-08-03T10:50:47;101151.00;;;32.80
60966;BMP180;46834;51.100;6.886;2022-08-03T10:53:13;101146.00;;;32.80
60966;BMP180;46834;51.100;6.886;2022-08-03T10:55:41;101152.00;;;32.90
60966;BMP180;46834;51.100;6.886;2022-08-03T10:58:53;101129.00;;;32.80
60966;BMP180;46834;51.100;6.886;2022-08-03T11:01:51;101136.00;;;32.80
60966;BMP180;46834;51.100;6.886;2022-08-03T11:04:22;101138.00;;;32.90
60966;BMP180;46834;51.100;6.886;2022-08-03T11:07:21;101136.00;;;32.90
60966;BMP180;46834;51.100;6.886;2022-08-03T11:09:50;101137.00;;;33.00
60966;BMP180;46834;51.100;6.886;2022-08-03T11:12:26;101128.00;;;33.00
60966;BMP180;46834;51.100;6.886;2022-08-03T11:14:54;101130.00;;;33.10
60966;BMP180;46834;51.100;6.886;2022-08-03T11:17:21;101127.00;;;33.10
60966;BMP180;46834;51.100;6.886;2022-08-03T11:19:50;101125.00;;;33.10
60966;BMP180;46834;51.100;6.886;2022-08-03T11:22:18;101125.00;;;33.20
60966;BMP180;46834;51.100;6.886;2022-08-03T11:27:19;101118.00;;;33.20
60966;BMP180;46834;51.100;6.886;2022-08-03T11:40:48;101123.00;;;33.20
60966;BMP180;46834;51.100;6.886;2022-08-03T11:46:08;101108.00;;;33.20
60966;BMP180;46834;51.100;6.886;2022-08-03T11:49:03;101117.00;;;33.20
60966;BMP180;46834;51.100;6.886;2022-08-03T11:51:30;101113.00;;;33.30
60966;BMP180;46834;51.100;6.886;2022-08-03T11:54:01;101115.00;;;33.30
60966;BMP180;46834;51.100;6.886;2022-08-03T11:56:43;101118.00;;;33.20
60966;BMP180;46834;51.100;6.886;2022-08-03T11:59:08;101122.00;;;33.30
60966;BMP180;46834;51.100;6.886;2022-08-03T12:01:34;101120.00;;;33.30
60966;BMP180;46834;51.100;6.886;2022-08-03T12:04:05;101110.00;;;33.30
60966;BMP180;46834;51.100;6.886;2022-08-03T12:06:32;101124.00;;;33.40
60966;BMP180;46834;51.100;6.886;2022-08-03T12:09:19;101116.00;;;33.40
60966;BMP180;46834;51.100;6.886;2022-08-03T12:11:49;101115.00;;;33.40
60966;BMP180;46834;51.100;6.886;2022-08-03T12:14:19;101107.00;;;33.40
60966;BMP180;46834;51.100;6.886;2022-08-03T12:16:48;101105.00;;;33.40
60966;BMP180;46834;51.100;6.886;2022-08-03T12:19:15;101115.00;;;33.50
60966;BMP180;46834;51.100;6.886;2022-08-03T12:21:48;101109.00;;;33.50
60966;BMP180;46834;51.100;6.886;2022-08-03T12:24:14;101106.00;;;33.60
60966;BMP180;46834;51.100;6.886;2022-08-03T12:26:49;101106.00;;;33.60
60966;BMP180;46834;51.100;6.886;2022-08-03T12:29:20;101100.00;;;33.60
60966;BMP180;46834;51.100;6.886;2022-08-03T12:31:47;101102.00;;;33.70
60966;BMP180;46834;51.100;6.886;2022-08-03T12:34:13;101095.00;;;33.70
60966;BMP180;46834;51.100;6.886;2022-08-03T12:36:51;101092.00;;;33.70
60966;BMP180;46834;51.100;6.886;2022-08-03T12:39:23;101104.00;;;33.70
60966;BMP180;46834;51.100;6.886;2022-08-03T12:41:53;101093.00;;;33.80
60966;BMP180;46834;51.100;6.886;2022-08-03T12:44:32;101095.00;;;33.80
60966;BMP180;46834;51.100;6.886;2022-08-03T12:47:01;101102.00;;;33.90
60966;BMP180;46834;51.100;6.886;2022-08-03T12:49:27;101096.00;;;33.90
60966;BMP180;46834;51.100;6.886;2022-08-03T12:54:22;101093.00;;;33.90
60966;BMP180;46834;51.100;6.886;2022-08-03T12:57:11;101100.00;;;33.90
60966;BMP180;46834;51.100;6.886;2022-08-03T12:59:42;101095.00;;;34.00
60966;BMP180;46834;51.100;6.886;2022-08-03T13:02:20;101095.00;;;34.00
60966;BMP180;46834;51.100;6.886;2022-08-03T13:04:48;101096.00;;;34.00
60966;BMP180;46834;51.100;6.886;2022-08-03T13:07:15;101094.00;;;34.10
60966;BMP180;46834;51.100;6.886;2022-08-03T13:09:54;101080.00;;;34.10
60966;BMP180;46834;51.100;6.886;2022-08-03T13:12:26;101089.00;;;34.10
60966;BMP180;46834;51.100;6.886;2022-08-03T13:14:58;101092.00;;;34.10
60966;BMP180;46834;51.100;6.886;2022-08-03T13:17:26;101088.00;;;34.20
60966;BMP180;46834;51.100;6.886;2022-08-03T13:19:52;101085.00;;;34.20
60966;BMP180;46834;51.100;6.886;2022-08-03T13:22:26;101080.00;;;34.20
60966;BMP180;46834;51.100;6.886;2022-08-03T13:24:56;101092.00;;;34.20
60966;BMP180;46834;51.100;6.886;2022-08-03T13:27:23;101083.00;;;34.30
60966;BMP180;46834;51.100;6.886;2022-08-03T13:29:49;101088.00;;;34.30
60966;BMP180;46834;51.100;6.886;2022-08-03T13:32:15;101081.00;;;34.30
60966;BMP180;46834;51.100;6.886;2022-08-03T13:34:41;101087.00;;;34.30
60966;BMP180;46834;51.100;6.886;2022-08-03T13:37:06;101085.00;;;34.40
60966;BMP180;46834;51.100;6.886;2022-08-03T13:39:32;101080.00;;;34.40
60966;BMP180;46834;51.100;6.886;2022-08-03T13:41:58;101079.00;;;34.40
60966;BMP180;46834;51.100;6.886;2022-08-03T13:44:23;101087.00;;;34.50
60966;BMP180;46834;51.100;6.886;2022-08-03T13:46:49;101083.00;;;34.50
60966;BMP180;46834;51.100;6.886;2022-08-03T13:49:15;101076.00;;;34.50
60966;BMP180;46834;51.100;6.886;2022-08-03T13:51:41;101075.00;;;34.50
60966;BMP180;46834;51.100;6.886;2022-08-03T13:54:07;101069.00;;;34.50
60966;BMP180;46834;51.100;6.886;2022-08-03T13:56:33;101056.00;;;34.60
60966;BMP180;46834;51.100;6.886;2022-08-03T13:58:58;101060.00;;;34.60
60966;BMP180;46834;51.100;6.886;2022-08-03T14:01:25;101057.00;;;34.60
60966;BMP180;46834;51.100;6.886;2022-08-03T14:03:51;101059.00;;;34.60
60966;BMP180;46834;51.100;6.886;2022-08-03T14:06:20;101053.00;;;34.60
60966;BMP180;46834;51.100;6.886;2022-08-03T14:08:45;101042.00;;;34.60
60966;BMP180;46834;51.100;6.886;2022-08-03T14:11:13;101050.00;;;34.70
60966;BMP180;46834;51.100;6.886;2022-08-03T14:13:38;101044.00;;;34.70
60966;BMP180;46834;51.100;6.886;2022-08-03T14:16:05;101043.00;;;34.70
60966;BMP180;46834;51.100;6.886;2022-08-03T14:18:31;101039.00;;;34.70
60966;BMP180;46834;51.100;6.886;2022-08-03T14:20:58;101046.00;;;34.70
60966;BMP180;46834;51.100;6.886;2022-08-03T14:23:24;101043.00;;;34.70
60966;BMP180;46834;51.100;6.886;2022-08-03T14:25:50;101039.00;;;34.70
60966;BMP180;46834;51.100;6.886;2022-08-03T14:28:17;101038.00;;;34.70
60966;BMP180;46834;51.100;6.886;2022-08-03T14:30:42;101034.00;;;34.70
60966;BMP180;46834;51.100;6.886;2022-08-03T14:33:08;101039.00;;;34.70
60966;BMP180;46834;51.100;6.886;2022-08-03T14:35:34;101021.00;;;34.70